createdAt,value
2018-09-24T00:01:54.343Z,63.94
2018-09-24T00:04:22.968Z,63.96
2018-09-24T00:06:51.582Z,63.85
2018-09-24T00:09:20.439Z,63.80
2018-09-24T00:11:48.973Z,64.05
2018-09-24T00:14:17.569Z,64.19
2018-09-24T00:16:46.170Z,64.07
2018-09-24T00:19:14.735Z,63.37
2018-09-24T00:21:43.246Z,64.06
2018-09-24T00:24:11.896Z,64.27
2018-09-24T00:26:40.443Z,64.51
2018-09-24T00:29:08.981Z,64.42
2018-09-24T00:31:37.440Z,64.09
2018-09-24T00:34:05.982Z,63.93
2018-09-24T00:36:34.490Z,63.82
2018-09-24T00:39:03.045Z,63.73
2018-09-24T00:41:31.571Z,63.91
2018-09-24T00:44:00.039Z,63.96
2018-09-24T00:46:28.563Z,64.34
2018-09-24T00:48:57.051Z,63.94
2018-09-24T00:51:25.513Z,63.99
2018-09-24T00:53:53.999Z,63.96
2018-09-24T00:56:22.591Z,63.88
2018-09-24T00:58:51.055Z,64.20
2018-09-24T01:01:19.544Z,64.04
2018-09-24T01:03:48.109Z,64.25
2018-09-24T01:06:16.623Z,64.52
2018-09-24T01:08:45.136Z,64.27
2018-09-24T01:11:13.627Z,64.19
2018-09-24T01:13:42.166Z,63.99
2018-09-24T01:16:10.643Z,64.43
2018-09-24T01:18:39.216Z,64.28
2018-09-24T01:21:07.715Z,64.61
2018-09-24T01:23:36.229Z,64.50
2018-09-24T01:26:04.830Z,64.44
2018-09-24T01:28:33.310Z,64.33
2018-09-24T01:31:01.793Z,64.47
2018-09-24T01:33:30.296Z,64.03
2018-09-24T01:35:58.809Z,64.26
2018-09-24T01:38:27.291Z,64.47
2018-09-24T01:40:55.804Z,64.33
2018-09-24T01:43:24.285Z,64.33
2018-09-24T01:45:52.819Z,64.23
2018-09-24T01:48:21.306Z,63.65
2018-09-24T01:50:49.814Z,63.57
2018-09-24T01:53:18.309Z,63.66
2018-09-24T01:55:49.980Z,63.82
2018-09-24T01:58:18.481Z,63.82
2018-09-24T02:00:47.011Z,63.71
2018-09-24T02:03:15.481Z,63.92
2018-09-24T02:05:44.066Z,63.80
2018-09-24T02:08:12.539Z,64.27
2018-09-24T02:10:41.073Z,63.90
2018-09-24T02:13:09.617Z,64.10
2018-09-24T02:15:38.258Z,63.82
2018-09-24T02:18:06.784Z,63.96
2018-09-24T02:20:41.322Z,64.23
2018-09-24T02:23:09.839Z,64.17
2018-09-24T02:25:39.622Z,64.32
2018-09-24T02:28:08.215Z,64.41
2018-09-24T02:30:36.835Z,64.28
2018-09-24T02:33:10.711Z,64.35
2018-09-24T02:35:42.914Z,64.14
2018-09-24T02:38:11.461Z,64.24
2018-09-24T02:40:39.989Z,64.36
2018-09-24T02:43:08.532Z,64.40
2018-09-24T02:45:37.063Z,64.20
2018-09-24T02:48:05.613Z,64.15
2018-09-24T02:50:37.985Z,64.00
2018-09-24T02:53:07.500Z,63.85
2018-09-24T02:55:36.012Z,63.84
2018-09-24T02:58:04.667Z,63.84
2018-09-24T03:00:33.527Z,63.72
2018-09-24T03:03:08.095Z,63.44
2018-09-24T03:05:36.751Z,63.51
2018-09-24T03:08:12.382Z,63.25
2018-09-24T03:10:41.382Z,63.10
2018-09-24T03:13:09.930Z,62.99
2018-09-24T03:15:39.758Z,63.06
2018-09-24T03:18:09.218Z,62.87
2018-09-24T03:20:43.135Z,63.46
2018-09-24T03:23:11.691Z,63.28
2018-09-24T03:25:40.592Z,63.39
2018-09-24T03:28:09.289Z,63.56
2018-09-24T03:30:40.837Z,63.23
2018-09-24T03:33:09.387Z,63.57
2018-09-24T03:35:37.941Z,63.87
2018-09-24T03:38:06.563Z,63.69
2018-09-24T03:40:35.173Z,63.99
2018-09-24T03:43:03.824Z,63.66
2018-09-24T03:45:32.357Z,63.98
2018-09-24T03:48:00.857Z,63.76
2018-09-24T03:50:29.355Z,63.71
2018-09-24T03:52:57.906Z,63.93
2018-09-24T03:55:26.540Z,63.98
2018-09-24T03:57:55.059Z,63.63
2018-09-24T04:00:23.616Z,63.75
2018-09-24T04:02:52.072Z,63.78
2018-09-24T04:05:25.896Z,63.84
2018-09-24T04:07:59.533Z,64.08
2018-09-24T04:10:33.191Z,64.06
2018-09-24T04:13:06.937Z,64.14
2018-09-24T04:15:40.891Z,63.88
2018-09-24T04:18:14.747Z,64.53
2018-09-24T04:20:48.401Z,64.36
2018-09-24T04:23:22.047Z,63.93
2018-09-24T04:25:55.893Z,64.17
2018-09-24T04:28:29.516Z,64.57
2018-09-24T04:31:03.327Z,64.37
2018-09-24T04:33:36.939Z,64.60
2018-09-24T04:36:10.681Z,63.99
2018-09-24T04:38:44.550Z,64.12
2018-09-24T04:41:18.182Z,64.43
2018-09-24T04:43:51.800Z,64.17
2018-09-24T04:46:25.384Z,64.44
2018-09-24T04:48:59.060Z,64.40
2018-09-24T04:51:32.722Z,64.06
2018-09-24T04:54:06.482Z,64.20
2018-09-24T04:56:40.246Z,64.24
2018-09-24T04:59:13.951Z,64.36
2018-09-24T05:01:47.787Z,64.30
2018-09-24T05:04:21.410Z,63.87
2018-09-24T05:06:55.252Z,64.14
2018-09-24T05:09:28.942Z,64.12
2018-09-24T05:12:02.759Z,64.11
2018-09-24T05:14:36.330Z,64.08
2018-09-24T05:17:10.251Z,64.66
2018-09-24T05:19:43.868Z,64.11
2018-09-24T05:22:17.671Z,64.55
2018-09-24T05:24:51.321Z,64.35
2018-09-24T05:27:25.159Z,63.60
2018-09-24T05:29:58.894Z,63.77
2018-09-24T05:32:32.810Z,63.88
2018-09-24T05:35:06.476Z,63.99
2018-09-24T05:37:40.068Z,64.05
2018-09-24T05:40:13.719Z,63.94
2018-09-24T05:42:47.400Z,63.99
2018-09-24T05:45:21.274Z,63.64
2018-09-24T05:47:54.985Z,63.37
2018-09-24T05:50:28.627Z,63.18
2018-09-24T05:53:02.219Z,63.19
2018-09-24T05:55:35.924Z,63.00
2018-09-24T05:58:09.836Z,62.79
2018-09-24T06:00:43.526Z,62.87
2018-09-24T06:03:17.128Z,62.24
2018-09-24T06:05:50.968Z,62.25
2018-09-24T06:08:24.794Z,62.25
2018-09-24T06:10:58.516Z,61.80
2018-09-24T06:13:32.534Z,62.22
2018-09-24T06:16:06.274Z,61.63
2018-09-24T06:18:40.209Z,61.19
2018-09-24T06:21:13.949Z,60.73
2018-09-24T06:23:47.647Z,59.80
2018-09-24T06:26:21.257Z,59.24
2018-09-24T06:28:55.029Z,57.73
2018-09-24T06:31:28.732Z,56.16
2018-09-24T06:34:02.394Z,55.86
2018-09-24T06:36:35.905Z,54.46
2018-09-24T06:39:10.332Z,53.14
2018-09-24T06:41:43.897Z,52.64
2018-09-24T06:44:17.738Z,50.54
2018-09-24T06:46:51.708Z,49.16
2018-09-24T06:49:25.343Z,48.16
2018-09-24T06:51:59.080Z,47.29
2018-09-24T06:54:32.829Z,46.09
2018-09-24T06:57:06.434Z,45.38
2018-09-24T06:59:40.313Z,44.61
2018-09-24T07:02:13.912Z,44.69
2018-09-24T07:04:47.608Z,45.86
2018-09-24T07:07:21.492Z,44.10
2018-09-24T07:09:55.115Z,43.33
2018-09-24T07:12:28.824Z,42.60
2018-09-24T07:15:02.737Z,42.13
2018-09-24T07:17:36.625Z,41.31
2018-09-24T07:20:10.402Z,40.59
2018-09-24T07:22:44.151Z,39.22
2018-09-24T07:25:17.907Z,38.31
2018-09-24T07:27:51.574Z,38.06
2018-09-24T07:30:25.338Z,36.91
2018-09-24T07:32:59.123Z,34.97
2018-09-24T07:35:32.843Z,35.91
2018-09-24T07:38:06.451Z,34.31
2018-09-24T07:40:40.443Z,33.71
2018-09-24T07:43:14.083Z,33.13
2018-09-24T07:45:47.893Z,32.65
2018-09-24T07:48:21.538Z,32.87
2018-09-24T07:50:55.436Z,30.83
2018-09-24T07:53:29.109Z,30.80
2018-09-24T07:56:02.932Z,30.06
2018-09-24T07:58:36.920Z,28.80
2018-09-24T08:01:10.584Z,28.50
2018-09-24T08:06:35.339Z,27.86
2018-09-24T08:09:09.287Z,26.47
2018-09-24T08:11:43.048Z,26.01
2018-09-24T08:14:16.819Z,25.57
2018-09-24T08:16:50.730Z,24.91
2018-09-24T08:19:24.697Z,26.54
2018-09-24T08:21:58.596Z,24.19
2018-09-24T08:24:32.556Z,25.18
2018-09-24T08:27:06.377Z,24.45
2018-09-24T08:29:40.267Z,23.18
2018-09-24T08:32:14.080Z,22.30
2018-09-24T08:34:47.920Z,22.47
2018-09-24T08:37:21.554Z,22.51
2018-09-24T08:39:55.266Z,21.81
2018-09-24T08:42:29.129Z,21.03
2018-09-24T08:45:03.049Z,20.54
2018-09-24T08:47:36.791Z,20.32
2018-09-24T08:50:10.662Z,19.20
2018-09-24T08:52:44.442Z,19.58
2018-09-24T08:55:18.277Z,19.90
2018-09-24T08:57:52.193Z,19.33
2018-09-24T09:00:26.192Z,18.08
2018-09-24T09:03:00.134Z,18.15
2018-09-24T09:05:34.168Z,18.42
2018-09-24T09:08:08.208Z,17.50
2018-09-24T09:10:42.264Z,17.40
2018-09-24T09:13:16.229Z,17.25
2018-09-24T09:15:50.187Z,17.18
2018-09-24T09:18:24.228Z,16.84
2018-09-24T09:20:57.919Z,16.20
2018-09-24T09:23:31.797Z,16.75
2018-09-24T09:26:05.804Z,16.04
2018-09-24T09:28:39.712Z,14.73
2018-09-24T09:31:13.760Z,15.09
2018-09-24T09:33:47.697Z,14.19
2018-09-24T09:36:22.305Z,13.45
2018-09-24T09:38:56.161Z,14.20
2018-09-24T09:41:29.991Z,14.77
2018-09-24T09:44:03.791Z,14.53
2018-09-24T09:46:37.597Z,14.27
2018-09-24T09:49:11.473Z,13.45
2018-09-24T09:51:45.324Z,13.38
2018-09-24T09:54:19.243Z,13.43
2018-09-24T09:56:52.928Z,13.63
2018-09-24T09:59:26.744Z,13.05
2018-09-24T10:02:00.726Z,13.93
2018-09-24T10:04:34.628Z,12.44
2018-09-24T10:07:08.416Z,13.23
2018-09-24T10:09:42.208Z,12.01
2018-09-24T10:12:16.508Z,12.55
2018-09-24T10:14:50.201Z,14.54
2018-09-24T10:17:24.276Z,15.95
2018-09-24T10:19:58.091Z,17.08
2018-09-24T10:22:32.059Z,17.62
2018-09-24T10:25:05.900Z,18.18
2018-09-24T10:27:39.782Z,19.48
2018-09-24T10:30:13.779Z,20.20
2018-09-24T10:32:47.633Z,19.86
2018-09-24T10:35:21.582Z,20.51
2018-09-24T10:37:55.401Z,20.79
2018-09-24T10:40:29.197Z,19.72
2018-09-24T10:43:03.436Z,19.52
2018-09-24T10:45:37.112Z,19.31
2018-09-24T10:48:11.603Z,20.31
2018-09-24T10:50:50.478Z,20.08
2018-09-24T10:53:24.416Z,20.02
2018-09-24T10:55:58.500Z,21.42
2018-09-24T10:58:32.520Z,21.71
2018-09-24T11:01:06.411Z,22.26
2018-09-24T11:03:40.742Z,22.92
2018-09-24T11:06:14.560Z,23.28
2018-09-24T11:08:48.220Z,24.24
2018-09-24T11:11:22.392Z,24.80
2018-09-24T11:13:56.254Z,25.63
2018-09-24T11:16:30.130Z,26.80
2018-09-24T11:19:03.904Z,24.33
2018-09-24T11:21:38.027Z,22.09
2018-09-24T11:24:12.786Z,19.20
2018-09-24T11:26:47.747Z,17.06
2018-09-24T11:29:21.601Z,14.94
2018-09-24T11:31:55.415Z,14.16
2018-09-24T11:34:29.212Z,12.73
2018-09-24T11:37:02.994Z,13.29
2018-09-24T11:39:36.837Z,14.72
2018-09-24T11:42:10.387Z,14.82
2018-09-24T11:44:44.567Z,14.86
2018-09-24T11:47:18.688Z,15.01
2018-09-24T11:49:52.436Z,15.63
2018-09-24T11:52:26.484Z,15.84
2018-09-24T11:55:00.288Z,16.19
2018-09-24T11:57:34.240Z,14.41
2018-09-24T12:00:08.101Z,14.56
2018-09-24T12:02:42.112Z,14.83
2018-09-24T12:05:16.276Z,15.61
2018-09-24T12:07:49.974Z,17.18
2018-09-24T12:10:23.828Z,18.04
2018-09-24T12:12:57.707Z,20.00
2018-09-24T12:15:31.295Z,20.69
2018-09-24T12:18:05.071Z,21.16
2018-09-24T12:20:39.054Z,21.63
2018-09-24T12:23:12.976Z,22.34
2018-09-24T12:25:46.708Z,23.33
2018-09-24T12:28:20.525Z,23.39
2018-09-24T12:30:54.535Z,24.39
2018-09-24T12:33:28.452Z,24.68
2018-09-24T12:36:02.153Z,24.45
2018-09-24T12:38:35.933Z,25.08
2018-09-24T12:41:09.964Z,24.60
2018-09-24T12:43:43.962Z,25.45
2018-09-24T12:46:17.896Z,26.77
2018-09-24T12:48:51.626Z,28.16
2018-09-24T12:51:25.597Z,29.26
2018-09-24T12:53:59.273Z,30.17
2018-09-24T12:56:33.043Z,30.46
2018-09-24T12:59:06.900Z,30.04
2018-09-24T13:01:40.619Z,30.19
2018-09-24T13:04:14.639Z,29.14
2018-09-24T13:06:48.811Z,30.00
2018-09-24T13:09:22.632Z,29.54
2018-09-24T13:11:56.837Z,28.28
2018-09-24T13:14:30.567Z,28.21
2018-09-24T13:17:04.411Z,29.04
2018-09-24T13:19:38.121Z,28.50
2018-09-24T13:22:12.035Z,29.42
2018-09-24T13:24:45.693Z,28.85
2018-09-24T13:27:19.663Z,29.32
2018-09-24T13:29:54.120Z,29.58
2018-09-24T13:35:30.019Z,29.12
2018-09-24T13:38:04.266Z,28.46
2018-09-24T13:40:37.851Z,29.72
2018-09-24T13:43:11.617Z,30.20
2018-09-24T13:45:45.758Z,30.12
2018-09-24T13:48:19.497Z,31.24
2018-09-24T13:50:53.124Z,30.72
2018-09-24T13:53:26.806Z,31.59
2018-09-24T13:56:00.427Z,31.84
2018-09-24T13:58:34.259Z,31.53
2018-09-24T14:01:07.928Z,32.16
2018-09-24T14:03:41.707Z,31.84
2018-09-24T14:06:15.397Z,31.91
2018-09-24T14:08:49.408Z,32.27
2018-09-24T14:11:23.229Z,33.11
2018-09-24T14:13:57.715Z,32.70
2018-09-24T14:16:31.476Z,32.61
2018-09-24T14:19:05.292Z,32.96
2018-09-24T14:21:38.856Z,32.51
2018-09-24T14:24:12.374Z,32.66
2018-09-24T14:26:46.140Z,32.34
2018-09-24T14:29:19.945Z,32.24
2018-09-24T14:31:53.743Z,32.71
2018-09-24T14:34:27.571Z,32.63
2018-09-24T14:37:01.337Z,32.30
2018-09-24T14:39:35.345Z,31.49
2018-09-24T14:42:09.364Z,32.00
2018-09-24T14:44:43.276Z,30.98
2018-09-24T14:47:17.234Z,31.49
2018-09-24T14:49:51.186Z,31.59
2018-09-24T14:52:25.062Z,31.88
2018-09-24T14:54:58.633Z,32.09
2018-09-24T14:57:32.351Z,32.09
2018-09-24T15:00:06.132Z,31.74
2018-09-24T15:02:39.817Z,31.40
2018-09-24T15:05:13.680Z,31.65
2018-09-24T15:07:47.854Z,32.17
2018-09-24T15:10:21.675Z,31.66
2018-09-24T15:12:55.720Z,31.97
2018-09-24T15:15:29.529Z,32.92
2018-09-24T15:18:03.294Z,33.42
2018-09-24T15:20:37.200Z,32.80
2018-09-24T15:23:10.887Z,33.32
2018-09-24T15:25:44.610Z,33.05
2018-09-24T15:28:18.412Z,34.64
2018-09-24T15:30:52.274Z,33.76
2018-09-24T15:33:26.276Z,33.72
2018-09-24T15:36:00.031Z,34.09
2018-09-24T15:38:33.832Z,33.96
2018-09-24T15:41:07.826Z,34.33
2018-09-24T15:43:41.751Z,34.51
2018-09-24T15:46:15.752Z,34.40
2018-09-24T15:48:49.574Z,34.48
2018-09-24T15:51:23.302Z,34.89
2018-09-24T15:53:56.865Z,34.42
2018-09-24T15:56:31.255Z,33.22
2018-09-24T15:59:05.334Z,33.05
2018-09-24T16:01:39.330Z,33.64
2018-09-24T16:04:13.609Z,34.50
2018-09-24T16:06:47.484Z,34.97
2018-09-24T16:09:21.306Z,35.75
2018-09-24T16:11:54.971Z,35.74
2018-09-24T16:14:28.712Z,35.77
2018-09-24T16:17:02.420Z,35.45
2018-09-24T16:19:36.324Z,36.02
2018-09-24T16:22:09.960Z,35.60
2018-09-24T16:24:43.786Z,35.76
2018-09-24T16:27:17.571Z,35.16
2018-09-24T16:29:51.507Z,35.39
2018-09-24T16:32:25.209Z,34.87
2018-09-24T16:34:59.053Z,34.26
2018-09-24T16:37:34.168Z,33.93
2018-09-24T16:40:07.774Z,33.68
2018-09-24T16:42:41.764Z,34.69
2018-09-24T16:45:15.427Z,35.11
2018-09-24T16:47:49.525Z,35.12
2018-09-24T16:50:23.388Z,34.78
2018-09-24T16:52:56.987Z,35.70
2018-09-24T16:55:30.623Z,35.77
2018-09-24T16:58:04.422Z,35.92
2018-09-24T17:00:38.195Z,36.58
2018-09-24T17:03:12.208Z,37.55
2018-09-24T17:05:46.149Z,38.18
2018-09-24T17:08:19.885Z,38.82
2018-09-24T17:10:53.869Z,39.02
2018-09-24T17:13:27.809Z,39.19
2018-09-24T17:16:01.737Z,39.83
2018-09-24T17:18:35.429Z,40.11
2018-09-24T17:21:09.707Z,39.79
2018-09-24T17:23:43.385Z,40.49
2018-09-24T17:26:17.186Z,40.69
2018-09-24T17:28:51.028Z,40.01
2018-09-24T17:31:24.644Z,40.44
2018-09-24T17:33:58.486Z,40.34
2018-09-24T17:36:32.241Z,40.87
2018-09-24T17:39:06.143Z,40.36
2018-09-24T17:41:39.819Z,40.46
2018-09-24T17:44:13.722Z,40.89
2018-09-24T17:46:47.453Z,40.50
2018-09-24T17:49:21.315Z,40.83
2018-09-24T17:51:55.565Z,41.37
2018-09-24T17:54:29.509Z,40.98
2018-09-24T17:57:03.381Z,41.10
2018-09-24T17:59:37.156Z,41.53
2018-09-24T18:02:10.884Z,41.76
2018-09-24T18:04:44.907Z,41.99
2018-09-24T18:07:18.878Z,42.40
2018-09-24T18:09:52.568Z,42.84
2018-09-24T18:12:26.271Z,42.51
2018-09-24T18:15:00.105Z,42.73
2018-09-24T18:17:33.958Z,43.41
2018-09-24T18:20:08.060Z,42.78
2018-09-24T18:22:41.947Z,43.10
2018-09-24T18:25:15.845Z,43.78
2018-09-24T18:27:50.101Z,43.57
2018-09-24T18:30:23.908Z,43.54
2018-09-24T18:32:57.757Z,44.66
2018-09-24T18:35:31.755Z,44.09
2018-09-24T18:38:05.600Z,43.86
2018-09-24T18:40:41.844Z,44.07
2018-09-24T18:43:15.822Z,44.47
2018-09-24T18:45:49.749Z,44.33
2018-09-24T18:48:23.919Z,44.49
2018-09-24T18:50:57.612Z,44.55
2018-09-24T18:53:31.339Z,44.85
2018-09-24T18:56:05.168Z,44.35
2018-09-24T18:58:38.884Z,44.91
2018-09-24T19:01:12.950Z,44.97
2018-09-24T19:03:46.797Z,44.77
2018-09-24T19:06:20.591Z,44.65
2018-09-24T19:08:54.602Z,45.16
2018-09-24T19:11:28.513Z,44.57
2018-09-24T19:14:02.311Z,45.31
2018-09-24T19:16:36.202Z,44.65
2018-09-24T19:19:09.999Z,44.82
2018-09-24T19:21:43.592Z,44.96
2018-09-24T19:24:17.544Z,44.54
2018-09-24T19:26:51.302Z,45.03
2018-09-24T19:29:26.056Z,45.58
2018-09-24T19:31:59.954Z,45.75
2018-09-24T19:34:33.998Z,45.70
2018-09-24T19:37:07.841Z,45.24
2018-09-24T19:39:41.325Z,45.81
2018-09-24T19:42:15.351Z,44.88
2018-09-24T19:44:49.133Z,45.82
2018-09-24T19:47:22.972Z,45.18
2018-09-24T19:49:56.648Z,45.05
2018-09-24T19:52:30.290Z,45.74
2018-09-24T19:55:04.227Z,45.67
2018-09-24T19:57:37.908Z,45.64
2018-09-24T20:00:11.725Z,45.88
2018-09-24T20:02:45.289Z,46.74
2018-09-24T20:05:19.129Z,46.39
2018-09-24T20:07:52.841Z,47.07
2018-09-24T20:10:26.690Z,47.02
2018-09-24T20:13:00.395Z,47.32
2018-09-24T20:15:34.204Z,47.79
2018-09-24T20:18:07.956Z,47.58
2018-09-24T20:20:41.821Z,48.14
2018-09-24T20:23:15.634Z,47.85
2018-09-24T20:25:49.447Z,48.58
2018-09-24T20:28:22.984Z,48.85
2018-09-24T20:30:56.747Z,48.88
2018-09-24T20:33:30.628Z,49.03
2018-09-24T20:36:04.351Z,48.93
2018-09-24T20:38:38.087Z,49.13
2018-09-24T20:41:11.859Z,49.11
2018-09-24T20:43:45.571Z,49.28
2018-09-24T20:46:19.508Z,49.38
2018-09-24T20:48:53.353Z,49.85
2018-09-24T20:51:27.003Z,49.77
2018-09-24T20:54:00.795Z,50.07
2018-09-24T20:56:34.568Z,50.27
2018-09-24T20:59:08.314Z,50.22
2018-09-24T21:01:42.152Z,50.26
2018-09-24T21:04:16.021Z,50.82
2018-09-24T21:06:49.587Z,50.84
2018-09-24T21:09:23.306Z,50.88
2018-09-24T21:11:57.140Z,50.83
2018-09-24T21:14:31.872Z,51.04
2018-09-24T21:17:05.773Z,51.28
2018-09-24T21:19:39.520Z,51.49
2018-09-24T21:22:13.274Z,51.69
2018-09-24T21:24:47.032Z,51.60
2018-09-24T21:27:20.891Z,51.46
2018-09-24T21:29:54.806Z,51.42
2018-09-24T21:32:28.584Z,51.42
2018-09-24T21:35:02.480Z,51.69
2018-09-24T21:37:36.410Z,52.00
2018-09-24T21:40:10.115Z,52.09
2018-09-24T21:42:43.881Z,51.92
2018-09-24T21:45:17.618Z,52.28
2018-09-24T21:47:51.364Z,52.32
2018-09-24T21:50:25.132Z,52.79
2018-09-24T21:52:59.019Z,52.82
2018-09-24T21:55:33.261Z,52.92
2018-09-24T21:58:07.315Z,53.25
2018-09-24T22:00:41.330Z,53.15
2018-09-24T22:03:15.047Z,53.13
2018-09-24T22:05:48.829Z,53.40
2018-09-24T22:08:22.581Z,53.68
2018-09-24T22:10:56.414Z,53.60
2018-09-24T22:13:30.313Z,53.78
2018-09-24T22:16:04.039Z,53.80
2018-09-24T22:18:37.830Z,54.03
2018-09-24T22:21:11.624Z,54.04
2018-09-24T22:23:45.347Z,54.13
2018-09-24T22:26:19.065Z,54.00
2018-09-24T22:28:52.894Z,54.14
2018-09-24T22:31:26.802Z,54.33
2018-09-24T22:34:00.687Z,54.32
2018-09-24T22:36:34.508Z,54.60
2018-09-24T22:39:08.396Z,54.72
2018-09-24T22:41:42.166Z,54.95
2018-09-24T22:44:16.067Z,54.76
2018-09-24T22:46:49.918Z,55.03
2018-09-24T22:49:23.956Z,55.07
2018-09-24T22:51:57.713Z,55.36
2018-09-24T22:54:31.416Z,55.00
2018-09-24T22:57:05.161Z,55.46
2018-09-24T22:59:38.871Z,55.38
2018-09-24T23:02:12.608Z,55.57
2018-09-24T23:04:46.450Z,55.58
2018-09-24T23:07:20.218Z,55.76
2018-09-24T23:09:53.908Z,55.71
2018-09-24T23:12:27.662Z,55.72
2018-09-24T23:15:01.357Z,55.73
2018-09-24T23:17:35.144Z,56.31
2018-09-24T23:20:08.838Z,56.34
2018-09-24T23:22:42.592Z,56.41
2018-09-24T23:25:16.396Z,56.50
2018-09-24T23:27:50.171Z,56.54
2018-09-24T23:30:23.948Z,56.66
2018-09-24T23:32:57.819Z,56.95
2018-09-24T23:35:31.580Z,56.80
2018-09-24T23:38:05.548Z,57.02
2018-09-24T23:40:39.295Z,56.93
2018-09-24T23:43:13.177Z,57.06
2018-09-24T23:45:47.340Z,56.82
2018-09-24T23:48:21.007Z,57.38
2018-09-24T23:50:54.844Z,57.19
2018-09-24T23:53:28.693Z,57.32
2018-09-24T23:56:02.420Z,57.18
2018-09-24T23:58:36.470Z,57.34
